Time;durP1;ratioP1;P1;durP2;ratioP2;P2;SDS_P1;SDS_P2;PMS_P1;PMS_P2;Temp;Humidity;BMP_temperature;BMP_pressure;BME280_temperature;BME280_humidity;BME280_pressure;Samples;Min_cycle;Max_cycle;Signal;HPM_P1;HPM_P2
2022/12/16 00:00:29;;;;;;;84.77;50.77;;;0.30;94.80;;;;;;5034846;28;20190;-63
2022/12/16 00:02:59;;;;;;;82.97;48.80;;;0.30;94.80;;;;;;5053862;28;20186;-63
2022/12/16 00:05:25;;;;;;;69.47;42.73;;;0.30;93.50;;;;;;5034123;28;20203;-63
2022/12/16 00:07:50;;;;;;;79.47;48.77;;;0.30;94.80;;;;;;5048764;28;20421;-63
2022/12/16 00:10:16;;;;;;;81.97;48.80;;;0.30;93.90;;;;;;5033730;28;20237;-63
2022/12/16 00:12:41;;;;;;;79.27;48.80;;;0.20;94.60;;;;;;5033536;28;20259;-63
2022/12/16 00:15:07;;;;;;;83.33;47.90;;;0.30;95.10;;;;;;5051218;28;20238;-63
2022/12/16 00:17:33;;;;;;;76.83;46.43;;;0.30;95.30;;;;;;5044995;28;20270;-63
2022/12/16 00:20:02;;;;;;;79.60;48.57;;;0.30;95.10;;;;;;5048506;28;20476;-63
2022/12/16 00:22:28;;;;;;;79.30;47.83;;;0.30;95.30;;;;;;5020930;28;20421;-63
2022/12/16 00:24:53;;;;;;;83.60;46.73;;;0.30;95.00;;;;;;5032486;28;20422;-63
2022/12/16 00:27:19;;;;;;;83.67;50.37;;;0.30;95.30;;;;;;5014089;28;20190;-63
2022/12/16 00:29:45;;;;;;;82.53;46.90;;;0.30;95.30;;;;;;5018076;28;20190;-63
2022/12/16 00:32:10;;;;;;;82.00;49.43;;;0.20;94.50;;;;;;5029280;28;20191;-63
2022/12/16 00:34:36;;;;;;;75.37;45.53;;;0.20;94.00;;;;;;5034159;28;20210;-63
2022/12/16 00:37:01;;;;;;;91.10;50.70;;;0.20;94.80;;;;;;5005959;28;20187;-63
2022/12/16 00:39:27;;;;;;;77.77;48.70;;;0.20;95.50;;;;;;5028743;28;20190;-63
2022/12/16 00:41:53;;;;;;;77.87;46.17;;;0.20;95.40;;;;;;5047259;28;20183;-63
2022/12/16 00:44:18;;;;;;;90.57;52.47;;;0.20;95.70;;;;;;5046092;28;20280;-60
2022/12/16 00:46:44;;;;;;;85.43;50.00;;;0.20;95.30;;;;;;5035253;28;20754;-60
2022/12/16 00:49:10;;;;;;;81.87;49.20;;;0.20;95.50;;;;;;5036521;28;20614;-60
2022/12/16 00:51:35;;;;;;;84.67;49.97;;;0.20;95.40;;;;;;5043367;28;20191;-60
2022/12/16 00:54:01;;;;;;;90.43;53.20;;;0.20;96.00;;;;;;5039859;28;20195;-60
2022/12/16 00:56:27;;;;;;;79.13;48.60;;;0.10;95.10;;;;;;5056187;28;20222;-60
2022/12/16 00:58:52;;;;;;;83.43;51.73;;;0.10;95.20;;;;;;5035487;28;20221;-60
2022/12/16 01:01:18;;;;;;;84.80;50.00;;;0.20;96.00;;;;;;5041512;28;20201;-60
2022/12/16 01:03:44;;;;;;;82.50;50.63;;;0.10;95.70;;;;;;5021377;28;20239;-60
2022/12/16 01:06:15;;;;;;;82.13;48.20;;;0.10;95.80;;;;;;5055742;28;20191;-60
2022/12/16 01:08:47;;;;;;;89.43;50.57;;;0.20;96.30;;;;;;5055346;28;20192;-60
2022/12/16 01:11:18;;;;;;;80.27;47.57;;;0.20;96.40;;;;;;5053639;28;20455;-60
2022/12/16 01:13:45;;;;;;;79.93;48.30;;;0.20;96.60;;;;;;5053236;28;20415;-61
2022/12/16 01:16:10;;;;;;;76.23;43.97;;;0.20;96.60;;;;;;5023240;28;21033;-61
2022/12/16 01:18:36;;;;;;;65.10;40.57;;;0.20;96.60;;;;;;5051329;28;20444;-61
2022/12/16 01:21:04;;;;;;;73.57;43.67;;;0.20;96.80;;;;;;5036626;28;20187;-61
2022/12/16 01:23:29;;;;;;;89.80;51.93;;;0.20;96.90;;;;;;5043970;28;20179;-61
2022/12/16 01:25:58;;;;;;;65.87;41.37;;;0.20;97.10;;;;;;5032734;28;20433;-61
2022/12/16 01:28:24;;;;;;;82.83;50.50;;;0.20;97.10;;;;;;5056109;28;20193;-61
2022/12/16 01:30:56;;;;;;;73.13;45.07;;;0.20;97.10;;;;;;5036312;28;20420;-61
2022/12/16 01:33:21;;;;;;;88.97;53.57;;;0.20;97.20;;;;;;5035414;28;20228;-61
2022/12/16 01:35:47;;;;;;;89.40;50.57;;;0.20;97.30;;;;;;5029333;28;20493;-61
2022/12/16 01:38:13;;;;;;;77.57;46.80;;;0.20;97.30;;;;;;5022008;28;21059;-61
2022/12/16 01:40:38;;;;;;;80.87;49.33;;;0.20;97.20;;;;;;5051851;28;20191;-61
2022/12/16 01:43:11;;;;;;;91.47;56.30;;;0.20;97.30;;;;;;5051383;28;20202;-61
2022/12/16 01:45:37;;;;;;;78.63;50.90;;;0.20;97.20;;;;;;5051749;28;20238;-60
2022/12/16 01:48:35;;;;;;;77.77;48.33;;;0.10;95.80;;;;;;5025036;28;20514;-61
2022/12/16 01:51:09;;;;;;;83.80;50.57;;;0.20;96.90;;;;;;5053469;28;20208;-61
2022/12/16 01:53:37;;;;;;;82.30;49.57;;;0.20;97.10;;;;;;5051954;28;20432;-61
2022/12/16 01:56:03;;;;;;;79.43;46.63;;;0.20;97.30;;;;;;5047644;28;20472;-61
2022/12/16 01:58:32;;;;;;;88.23;52.63;;;0.20;97.50;;;;;;5032959;28;20434;-61
2022/12/16 02:00:59;;;;;;;94.73;53.00;;;0.20;97.40;;;;;;5050932;28;20175;-61
2022/12/16 02:03:26;;;;;;;79.67;49.60;;;0.20;97.30;;;;;;5035225;28;20489;-60
2022/12/16 02:05:52;;;;;;;74.37;47.13;;;0.20;96.80;;;;;;5034177;28;21011;-61
2022/12/16 02:08:18;;;;;;;81.80;47.33;;;0.20;97.30;;;;;;5023065;28;20513;-61
2022/12/16 02:10:53;;;;;;;67.00;40.57;;;0.20;97.50;;;;;;5031386;28;20434;-61
2022/12/16 02:13:53;;;;;;;80.10;45.13;;;0.20;97.60;;;;;;5052955;28;20432;-61
2022/12/16 02:16:52;;;;;;;75.50;44.70;;;0.20;97.50;;;;;;5050907;28;20437;-62
2022/12/16 02:19:33;;;;;;;67.20;43.17;;;0.20;97.60;;;;;;5046904;28;20429;-62
2022/12/16 02:22:01;;;;;;;81.10;50.07;;;0.20;97.40;;;;;;5066664;28;20454;-62
2022/12/16 02:24:36;;;;;;;85.37;52.00;;;0.20;97.50;;;;;;5052202;28;20433;-62
2022/12/16 02:27:26;;;;;;;78.37;47.23;;;0.20;97.30;;;;;;5052062;28;20424;-62
2022/12/16 02:30:02;;;;;;;79.20;48.57;;;0.20;97.20;;;;;;5054472;28;20426;-62
2022/12/16 02:32:37;;;;;;;87.10;53.23;;;0.20;97.10;;;;;;5048129;28;20421;-62
2022/12/16 02:35:17;;;;;;;80.07;50.10;;;0.20;96.80;;;;;;5042491;28;20465;-62
2022/12/16 02:38:18;;;;;;;83.93;50.10;;;0.10;96.60;;;;;;5053433;28;22032;-62
2022/12/16 02:40:58;;;;;;;74.63;44.37;;;0.10;96.60;;;;;;5062322;28;20490;-62
2022/12/16 02:43:35;;;;;;;62.67;39.00;;;0.20;97.20;;;;;;5052999;28;20455;-62
2022/12/16 02:46:03;;;;;;;77.60;48.37;;;0.20;97.50;;;;;;5003343;28;1116084;-62
2022/12/16 02:48:29;;;;;;;77.03;48.60;;;0.20;97.50;;;;;;5050905;28;20199;-62
2022/12/16 02:50:55;;;;;;;79.23;46.40;;;0.20;96.60;;;;;;5037389;28;20437;-62
2022/12/16 02:53:21;;;;;;;68.83;42.53;;;0.20;97.40;;;;;;5030489;28;20271;-62
2022/12/16 02:56:29;;;;;;;66.07;39.80;;;0.30;97.70;;;;;;5034459;28;20545;-62
2022/12/16 02:59:14;;;;;;;81.17;48.50;;;0.30;97.70;;;;;;5052005;28;20190;-62
2022/12/16 03:01:55;;;;;;;79.93;47.30;;;0.30;97.40;;;;;;5054383;28;20554;-62
2022/12/16 03:04:25;;;;;;;78.80;47.47;;;0.30;97.10;;;;;;5053972;28;20464;-62
2022/12/16 03:06:53;;;;;;;75.07;45.90;;;0.30;97.50;;;;;;5051831;28;20437;-62
2022/12/16 03:09:33;;;;;;;69.17;41.30;;;0.30;97.60;;;;;;5023161;28;20448;-62
2022/12/16 03:12:03;;;;;;;61.63;38.70;;;0.30;97.50;;;;;;5048249;28;20947;-62
2022/12/16 03:14:33;;;;;;;76.10;49.27;;;0.30;97.70;;;;;;5052219;28;20477;-62
2022/12/16 03:16:59;;;;;;;69.50;44.97;;;0.30;97.60;;;;;;5051722;28;20513;-61
2022/12/16 03:19:27;;;;;;;72.03;45.67;;;0.30;97.20;;;;;;5036474;28;21012;-62
2022/12/16 03:22:01;;;;;;;74.77;45.27;;;0.30;97.60;;;;;;5030594;28;20445;-62
2022/12/16 03:24:28;;;;;;;72.33;44.60;;;0.40;97.80;;;;;;5053871;28;20457;-62
2022/12/16 03:27:08;;;;;;;75.73;44.97;;;0.40;97.80;;;;;;5069253;28;20468;-62
2022/12/16 03:29:59;;;;;;;69.07;41.73;;;0.40;97.80;;;;;;5053578;28;20527;-62
2022/12/16 03:33:06;;;;;;;62.43;39.37;;;0.40;98.00;;;;;;5048671;28;20424;-62
2022/12/16 03:35:49;;;;;;;59.40;40.03;;;0.40;97.90;;;;;;5037570;28;20477;-62
2022/12/16 03:38:16;;;;;;;80.23;47.13;;;0.40;98.00;;;;;;5047851;28;20973;-62
2022/12/16 03:40:43;;;;;;;72.93;43.27;;;0.40;97.70;;;;;;5052112;28;20440;-62
2022/12/16 03:43:13;;;;;;;61.30;39.10;;;0.40;97.80;;;;;;5051016;28;20428;-62
2022/12/16 03:45:41;;;;;;;67.20;42.20;;;0.50;97.90;;;;;;5049286;28;20508;-62
2022/12/16 03:48:09;;;;;;;65.20;41.80;;;0.50;97.80;;;;;;5051788;28;20571;-62
2022/12/16 03:50:35;;;;;;;65.23;39.30;;;0.50;97.90;;;;;;5025111;28;20480;-62
2022/12/16 03:53:01;;;;;;;62.33;38.77;;;0.50;98.00;;;;;;5042009;28;20424;-62
2022/12/16 03:55:27;;;;;;;72.40;46.07;;;0.50;97.90;;;;;;5049523;28;20471;-62
2022/12/16 03:57:53;;;;;;;71.67;45.53;;;0.40;96.60;;;;;;5022174;28;20191;-62
2022/12/16 04:00:19;;;;;;;72.33;44.53;;;0.40;96.80;;;;;;5046326;28;20502;-62
2022/12/16 04:02:46;;;;;;;68.97;44.67;;;0.40;97.50;;;;;;5042125;28;20190;-62
2022/12/16 04:05:11;;;;;;;68.27;42.90;;;0.40;97.60;;;;;;5045845;28;20452;-62
2022/12/16 04:07:37;;;;;;;74.60;48.03;;;0.50;97.70;;;;;;5035804;28;20475;-62
2022/12/16 04:10:04;;;;;;;63.87;40.87;;;0.40;97.30;;;;;;5048128;28;20252;-62
2022/12/16 04:26:03;;;;;;;69.17;42.63;;;0.50;97.20;;;;;;5030171;28;20469;-62
2022/12/16 04:28:29;;;;;;;82.97;50.97;;;0.50;97.30;;;;;;5018732;28;20515;-62
2022/12/16 04:30:55;;;;;;;76.97;48.20;;;0.50;97.10;;;;;;5035911;28;20441;-62
